createdAt,value
2019-03-06T00:03:37.349Z,97616.81
2019-03-06T00:06:25.084Z,97625.49
2019-03-06T00:08:53.785Z,97624.91
2019-03-06T00:11:22.464Z,97619.45
2019-03-06T00:13:51.158Z,97617.39
2019-03-06T00:16:39.193Z,97612.77
2019-03-06T00:19:07.608Z,97613.69
2019-03-06T00:21:36.011Z,97616.70
2019-03-06T00:24:04.488Z,97615.77
2019-03-06T00:26:33.221Z,97613.88
2019-03-06T00:29:01.912Z,97606.77
2019-03-06T00:31:30.322Z,97599.54
2019-03-06T00:33:59.073Z,97605.09
2019-03-06T00:39:16.821Z,97600.06
2019-03-06T00:41:47.258Z,97599.97
2019-03-06T00:44:15.672Z,97595.35
2019-03-06T00:46:44.148Z,97595.45
2019-03-06T00:49:12.800Z,97602.34
2019-03-06T00:52:00.540Z,97598.00
2019-03-06T00:54:29.211Z,97598.58
2019-03-06T00:56:57.620Z,97590.67
2019-03-06T00:59:26.015Z,97594.23
2019-03-06T01:01:54.755Z,97593.23
2019-03-06T01:04:23.443Z,97593.63
2019-03-06T01:06:52.128Z,97590.13
2019-03-06T01:09:20.818Z,97584.88
2019-03-06T01:11:49.212Z,97578.17
2019-03-06T01:14:17.625Z,97573.89
2019-03-06T01:16:46.359Z,97565.16
2019-03-06T01:19:14.996Z,97562.75
2019-03-06T01:21:43.410Z,97560.88
2019-03-06T01:24:12.052Z,97572.44
2019-03-06T01:26:40.464Z,97566.76
2019-03-06T01:29:09.279Z,97554.89
2019-03-06T01:31:37.965Z,97563.16
2019-03-06T01:47:15.853Z,97552.41
2019-03-06T01:49:44.248Z,97541.55
2019-03-06T01:52:12.659Z,97540.73
2019-03-06T01:54:41.293Z,97537.16
2019-03-06T01:57:09.706Z,97532.34
2019-03-06T01:59:57.434Z,97531.04
2019-03-06T02:02:25.851Z,97520.58
2019-03-06T02:04:54.576Z,97519.95
2019-03-06T02:07:25.010Z,97516.77
2019-03-06T02:09:53.605Z,97505.90
2019-03-06T02:12:22.174Z,97505.27
2019-03-06T02:14:50.642Z,97504.48
2019-03-06T02:17:19.338Z,97497.89
2019-03-06T02:19:47.910Z,97492.66
2019-03-06T02:22:16.317Z,97498.17
2019-03-06T02:24:44.713Z,97501.45
2019-03-06T02:27:13.111Z,97512.37
2019-03-06T02:29:41.843Z,97501.17
2019-03-06T02:32:10.475Z,97488.55
2019-03-06T02:34:39.224Z,97491.07
2019-03-06T02:37:07.621Z,97477.69
2019-03-06T02:39:36.044Z,97471.89
2019-03-06T02:42:04.433Z,97466.02
2019-03-06T02:44:33.144Z,97456.70
2019-03-06T02:47:02.046Z,97462.53
2019-03-06T02:49:30.448Z,97452.64
2019-03-06T02:51:59.196Z,97459.80
2019-03-06T02:54:27.591Z,97453.82
2019-03-06T02:56:55.989Z,97458.85
2019-03-06T03:09:45.896Z,97456.70
2019-03-06T03:12:14.594Z,97452.70
2019-03-06T03:14:42.989Z,97453.03
2019-03-06T03:17:11.466Z,97448.39
2019-03-06T03:19:39.863Z,97442.09
2019-03-06T03:22:08.253Z,97442.80
2019-03-06T03:24:36.662Z,97433.58
2019-03-06T03:27:05.382Z,97429.73
2019-03-06T03:29:33.785Z,97430.80
2019-03-06T03:32:02.186Z,97424.83
2019-03-06T03:34:30.808Z,97421.52
2019-03-06T03:36:59.164Z,97420.27
2019-03-06T03:39:27.894Z,97419.75
2019-03-06T03:41:56.580Z,97418.41
2019-03-06T03:44:24.970Z,97424.14
2019-03-06T03:47:12.724Z,97423.64
2019-03-06T03:49:41.113Z,97426.02
2019-03-06T03:52:09.525Z,97416.50
2019-03-06T03:54:38.264Z,97427.00
2019-03-06T03:57:06.628Z,97422.34
2019-03-06T03:59:35.355Z,97425.44
2019-03-06T04:02:04.084Z,97419.52
2019-03-06T04:04:32.775Z,97430.13
2019-03-06T04:07:01.252Z,97427.16
2019-03-06T04:09:29.938Z,97425.53
2019-03-06T04:12:00.083Z,97428.56
2019-03-06T04:14:28.748Z,97428.04
2019-03-06T04:16:57.140Z,97420.88
2019-03-06T04:19:25.554Z,97410.07
2019-03-06T04:21:53.943Z,97421.55
2019-03-06T04:24:22.669Z,97425.42
2019-03-06T04:26:51.453Z,97429.48
2019-03-06T04:29:19.865Z,97418.61
2019-03-06T04:31:48.262Z,97428.42
2019-03-06T04:34:17.003Z,97422.72
2019-03-06T04:36:45.413Z,97426.65
2019-03-06T04:39:13.810Z,97432.56
2019-03-06T04:41:42.225Z,97421.61
2019-03-06T04:44:10.627Z,97422.48
2019-03-06T04:46:39.022Z,97430.91
2019-03-06T04:49:07.674Z,97434.20
2019-03-06T04:51:36.247Z,97435.27
2019-03-06T04:54:04.655Z,97426.05
2019-03-06T04:56:33.051Z,97427.73
2019-03-06T04:59:01.710Z,97423.73
2019-03-06T05:01:30.115Z,97419.03
2019-03-06T05:04:00.232Z,97410.23
2019-03-06T05:06:28.996Z,97401.31
2019-03-06T05:08:57.680Z,97395.31
2019-03-06T05:11:26.074Z,97393.46
2019-03-06T05:13:54.744Z,97391.20
2019-03-06T05:19:12.612Z,97387.44
2019-03-06T05:21:41.283Z,97377.10
2019-03-06T05:24:09.978Z,97376.83
2019-03-06T05:26:40.110Z,97369.14
2019-03-06T05:29:08.778Z,97383.66
2019-03-06T05:31:37.501Z,97383.69
2019-03-06T05:34:06.149Z,97373.58
2019-03-06T05:37:14.767Z,97368.27
2019-03-06T05:39:43.174Z,97367.75
2019-03-06T05:42:11.572Z,97358.59
2019-03-06T05:44:42.069Z,97360.09
2019-03-06T05:47:10.467Z,97362.58
2019-03-06T05:49:39.226Z,97362.08
2019-03-06T05:52:07.911Z,97344.14
2019-03-06T05:54:36.610Z,97341.20
2019-03-06T05:57:05.281Z,97334.47
2019-03-06T05:59:33.670Z,97331.23
2019-03-06T06:02:02.084Z,97334.95
2019-03-06T06:04:30.741Z,97328.91
2019-03-06T06:06:59.134Z,97332.69
2019-03-06T06:09:27.616Z,97331.27
2019-03-06T06:11:56.272Z,97334.91
2019-03-06T06:14:24.676Z,97336.20
2019-03-06T06:16:53.069Z,97333.20
2019-03-06T06:19:21.483Z,97338.88
2019-03-06T06:24:39.460Z,97328.01
2019-03-06T06:27:08.097Z,97331.03
2019-03-06T06:29:36.501Z,97328.12
2019-03-06T06:32:04.933Z,97320.65
2019-03-06T06:34:33.339Z,97309.00
2019-03-06T06:37:01.764Z,97299.06
2019-03-06T06:39:30.176Z,97305.19
2019-03-06T06:41:58.848Z,97299.82
2019-03-06T06:44:28.985Z,97302.97
2019-03-06T06:46:57.638Z,97296.91
2019-03-06T06:49:26.337Z,97296.19
2019-03-06T06:52:34.889Z,97297.63
2019-03-06T06:55:43.249Z,97299.67
2019-03-06T06:58:51.863Z,97291.48
2019-03-06T07:02:02.141Z,97283.06
2019-03-06T07:05:28.240Z,97280.06
2019-03-06T07:08:16.015Z,97283.20
2019-03-06T07:11:03.527Z,97280.77
2019-03-06T07:13:51.298Z,97272.19
2019-03-06T07:16:38.807Z,97273.75
2019-03-06T07:19:26.644Z,97268.10
2019-03-06T07:27:42.911Z,97262.84
2019-03-06T07:30:51.454Z,97262.95
2019-03-06T07:33:38.976Z,97266.20
2019-03-06T07:36:26.884Z,97264.28
2019-03-06T07:44:30.038Z,97259.27
2019-03-06T07:47:15.063Z,97256.80
2019-03-06T07:50:23.390Z,97255.75
2019-03-06T07:53:31.700Z,97247.36
2019-03-06T07:58:59.873Z,97249.77
2019-03-06T08:02:08.438Z,97242.77
2019-03-06T08:04:37.004Z,97241.28
2019-03-06T08:07:24.525Z,97243.67
2019-03-06T08:09:52.931Z,97245.86
2019-03-06T08:12:40.444Z,97240.37
2019-03-06T08:15:48.767Z,97239.38
2019-03-06T08:18:36.269Z,97227.50
2019-03-06T08:21:24.038Z,97237.02
2019-03-06T08:24:11.541Z,97239.54
2019-03-06T08:26:40.404Z,97240.88
2019-03-06T08:29:08.811Z,97231.38
2019-03-06T08:34:26.633Z,97224.59
2019-03-06T08:36:55.049Z,97233.42
2019-03-06T08:39:42.777Z,97232.73
2019-03-06T08:42:11.533Z,97221.92
2019-03-06T08:44:41.967Z,97225.48
2019-03-06T08:47:29.735Z,97218.95
2019-03-06T08:50:17.552Z,97225.07
2019-03-06T08:55:40.560Z,97217.95
2019-03-06T09:01:44.037Z,97211.38
2019-03-06T09:07:26.343Z,97201.54
2019-03-06T09:10:13.932Z,97188.75
2019-03-06T09:13:01.490Z,97188.87
2019-03-06T09:15:48.945Z,97190.55
2019-03-06T09:18:36.689Z,97178.75
2019-03-06T09:24:23.215Z,97172.53
2019-03-06T09:27:10.959Z,97170.30
2019-03-06T09:29:58.793Z,97171.29
2019-03-06T09:32:46.541Z,97170.17
2019-03-06T09:35:34.059Z,97155.63
2019-03-06T09:38:21.554Z,97147.06
2019-03-06T09:41:09.079Z,97142.87
2019-03-06T09:43:56.819Z,97129.60
2019-03-06T09:46:44.340Z,97117.23
2019-03-06T09:49:31.846Z,97112.55
2019-03-06T09:52:19.367Z,97103.98
2019-03-06T09:57:56.283Z,97085.06
2019-03-06T10:03:51.867Z,97084.48
2019-03-06T10:06:39.358Z,97085.06
2019-03-06T10:09:47.672Z,97085.88
2019-03-06T10:12:35.178Z,97076.80
2019-03-06T10:18:17.559Z,97072.17
2019-03-06T10:20:46.037Z,97064.14
2019-03-06T10:23:14.425Z,97054.45
2019-03-06T10:25:42.856Z,97055.80
2019-03-06T10:28:11.207Z,97058.09
2019-03-06T10:33:47.669Z,97052.95
2019-03-06T10:36:16.489Z,97044.21
2019-03-06T10:38:44.877Z,97040.45
2019-03-06T10:41:13.365Z,97033.05
2019-03-06T10:43:48.880Z,97027.78
2019-03-06T10:46:12.587Z,97037.02
2019-03-06T10:48:41.275Z,97030.05
2019-03-06T10:51:11.803Z,97017.05
2019-03-06T10:53:41.547Z,97013.84
2019-03-06T10:56:10.368Z,97009.33
2019-03-06T10:58:38.909Z,96999.94
2019-03-06T11:01:07.639Z,97007.59
2019-03-06T11:06:51.152Z,97002.51
2019-03-06T11:09:19.603Z,97006.84
2019-03-06T11:11:48.303Z,96998.02
2019-03-06T11:14:17.078Z,96988.47
2019-03-06T11:16:45.889Z,96993.00
2019-03-06T11:19:56.118Z,96992.15
2019-03-06T11:22:24.827Z,96979.77
2019-03-06T11:24:53.282Z,96975.61
2019-03-06T11:27:22.099Z,96974.48
2019-03-06T11:29:50.774Z,96964.88
2019-03-06T11:32:19.278Z,96965.16
2019-03-06T11:34:48.077Z,96960.64
2019-03-06T11:40:51.717Z,96943.55
2019-03-06T11:43:20.113Z,96936.67
2019-03-06T11:45:48.948Z,96930.66
2019-03-06T11:48:17.422Z,96927.33
2019-03-06T11:50:47.842Z,96920.34
2019-03-06T11:53:35.585Z,96891.16
2019-03-06T11:56:23.618Z,96901.92
2019-03-06T11:59:13.801Z,96897.56
2019-03-06T12:02:23.342Z,96897.56
2019-03-06T12:05:11.157Z,96891.02
2019-03-06T12:07:39.867Z,96891.02
2019-03-06T12:10:48.172Z,96883.10
2019-03-06T12:13:57.335Z,96876.52
2019-03-06T12:16:27.126Z,96863.46
2019-03-06T12:19:35.416Z,96862.19
2019-03-06T12:22:23.166Z,96840.70
2019-03-06T12:24:51.861Z,96840.70
2019-03-06T12:27:20.546Z,96826.91
2019-03-06T12:30:01.551Z,96828.67
2019-03-06T12:32:29.930Z,96828.67
2019-03-06T12:34:58.591Z,96820.39
2019-03-06T12:37:26.998Z,96808.45
2019-03-06T12:39:55.654Z,96808.28
2019-03-06T12:42:45.139Z,96806.31
2019-03-06T12:45:53.444Z,96801.41
2019-03-06T12:48:22.128Z,96801.41
2019-03-06T12:50:55.108Z,96797.95
2019-03-06T12:53:20.943Z,96785.94
2019-03-06T12:56:08.682Z,96769.72
2019-03-06T12:58:37.353Z,96775.80
2019-03-06T13:01:45.669Z,96775.80
2019-03-06T13:04:14.061Z,96762.89
2019-03-06T13:07:02.091Z,96762.01
2019-03-06T13:09:50.251Z,96755.28
2019-03-06T13:12:19.018Z,96745.98
2019-03-06T13:15:27.544Z,96742.92
2019-03-06T13:18:17.225Z,96735.00
2019-03-06T13:20:45.621Z,96735.00
2019-03-06T13:23:33.365Z,96725.64
2019-03-06T13:26:10.057Z,96725.64
2019-03-06T13:28:31.855Z,96724.55
2019-03-06T13:31:00.524Z,96721.50
2019-03-06T13:34:07.432Z,96713.16
2019-03-06T13:36:36.281Z,96713.16
2019-03-06T13:39:24.325Z,96715.16
2019-03-06T13:41:54.746Z,96715.16
2019-03-06T13:44:23.434Z,96715.26
2019-03-06T13:47:11.575Z,96701.53
2019-03-06T13:49:39.967Z,96701.53
2019-03-06T13:52:08.639Z,96708.53
2019-03-06T13:54:56.692Z,96703.08
2019-03-06T13:57:45.186Z,96697.20
2019-03-06T14:00:53.925Z,96697.20
2019-03-06T14:03:22.644Z,96699.20
2019-03-06T14:05:51.327Z,96691.52
2019-03-06T14:08:21.450Z,96699.20
2019-03-06T14:10:49.840Z,96665.57
2019-03-06T14:13:18.295Z,96693.38
2019-03-06T14:15:53.611Z,96690.39
2019-03-06T14:18:17.533Z,96684.62
2019-03-06T14:21:05.281Z,96687.68
2019-03-06T14:26:41.749Z,96691.08
2019-03-06T14:29:10.542Z,96672.80
2019-03-06T14:31:39.003Z,96673.98
2019-03-06T14:34:07.724Z,96678.34
2019-03-06T14:36:36.411Z,96678.34
2019-03-06T14:39:45.046Z,96673.38
2019-03-06T14:42:13.821Z,96668.30
2019-03-06T14:45:01.862Z,96669.27
2019-03-06T14:47:49.827Z,96660.45
2019-03-06T14:50:18.234Z,96660.45
2019-03-06T14:52:46.965Z,96657.67
2019-03-06T14:55:55.408Z,96647.87
2019-03-06T14:58:23.786Z,96641.47
2019-03-06T15:01:11.591Z,96645.61
2019-03-06T15:03:40.270Z,96645.61
2019-03-06T15:06:08.767Z,96645.63
2019-03-06T15:08:37.481Z,96641.06
2019-03-06T15:11:05.858Z,96634.17
2019-03-06T15:13:34.318Z,96635.21
2019-03-06T15:16:02.715Z,96633.55
2019-03-06T15:18:31.095Z,96623.44
2019-03-06T15:20:59.474Z,96626.05
2019-03-06T15:23:28.218Z,96605.17
2019-03-06T15:26:04.214Z,96618.02
2019-03-06T15:28:32.624Z,96623.66
2019-03-06T15:31:01.063Z,96615.02
2019-03-06T15:33:29.449Z,96617.08
2019-03-06T15:35:57.851Z,96619.57
2019-03-06T15:38:26.502Z,96619.72
2019-03-06T15:40:54.881Z,96618.03
2019-03-06T15:43:43.127Z,96601.70
2019-03-06T15:46:11.582Z,96601.70
2019-03-06T15:48:40.279Z,96612.84
2019-03-06T15:51:28.016Z,96612.03
2019-03-06T15:53:56.407Z,96615.75
2019-03-06T15:56:44.144Z,96605.27
2019-03-06T15:59:32.197Z,96605.27
2019-03-06T16:02:20.218Z,96596.28
2019-03-06T16:04:48.607Z,96591.73
2019-03-06T16:07:38.379Z,96588.23
2019-03-06T16:10:26.919Z,96586.02
2019-03-06T16:13:15.055Z,96596.42
2019-03-06T16:15:43.849Z,96596.42
2019-03-06T16:18:12.396Z,96585.97
2019-03-06T16:21:20.764Z,96582.91
2019-03-06T16:24:09.852Z,96577.71
2019-03-06T16:26:58.266Z,96577.03
2019-03-06T16:29:26.947Z,96577.03
2019-03-06T16:31:55.358Z,96570.94
2019-03-06T16:34:24.108Z,96578.38
2019-03-06T16:37:11.998Z,96575.66
2019-03-06T16:39:40.730Z,96575.66
2019-03-06T16:42:28.769Z,96562.52
2019-03-06T16:45:37.132Z,96578.59
2019-03-06T16:51:00.463Z,96578.66
2019-03-06T16:53:48.272Z,96573.43
2019-03-06T16:56:16.680Z,96580.38
2019-03-06T16:58:47.180Z,96572.45
2019-03-06T17:01:15.639Z,96561.58
2019-03-06T17:03:44.107Z,96560.36
2019-03-06T17:06:12.492Z,96561.92
2019-03-06T17:08:41.140Z,96554.78
2019-03-06T17:11:49.462Z,96558.78
2019-03-06T17:14:37.254Z,96556.00
2019-03-06T17:17:05.867Z,96556.00
2019-03-06T17:19:34.550Z,96549.23
2019-03-06T17:22:03.240Z,96545.80
2019-03-06T17:24:31.639Z,96544.47
2019-03-06T17:27:00.342Z,96548.56
2019-03-06T17:29:29.016Z,96547.56
2019-03-06T17:31:57.597Z,96556.16
2019-03-06T17:34:26.244Z,96549.45
2019-03-06T17:36:54.973Z,96554.07
2019-03-06T17:42:18.045Z,96557.27
2019-03-06T17:44:46.832Z,96558.50
2019-03-06T17:47:15.532Z,96559.28
2019-03-06T17:49:44.216Z,96557.53
2019-03-06T17:52:12.849Z,96556.90
2019-03-06T17:54:41.576Z,96557.61
2019-03-06T17:57:11.709Z,96556.03
2019-03-06T17:59:40.394Z,96557.84
2019-03-06T18:02:28.449Z,96550.67
2019-03-06T18:04:56.906Z,96533.03
2019-03-06T18:07:27.347Z,96534.47
2019-03-06T18:09:56.123Z,96527.53
2019-03-06T18:12:24.577Z,96523.25
2019-03-06T18:14:53.283Z,96513.16
2019-03-06T18:17:21.693Z,96511.65
2019-03-06T18:20:30.282Z,96506.20
2019-03-06T18:22:59.077Z,96494.73
2019-03-06T18:25:27.764Z,96475.70
2019-03-06T18:27:56.467Z,96475.23
2019-03-06T18:30:26.589Z,96464.00
2019-03-06T18:33:14.455Z,96466.86
2019-03-06T18:35:54.892Z,96463.90
2019-03-06T18:38:23.279Z,96456.84
2019-03-06T18:40:51.930Z,96454.42
2019-03-06T18:43:20.424Z,96454.75
2019-03-06T18:45:48.870Z,96443.50
2019-03-06T18:48:17.254Z,96446.12
2019-03-06T18:50:45.896Z,96445.22
2019-03-06T18:53:14.285Z,96454.75
2019-03-06T18:55:44.460Z,96456.98
2019-03-06T18:58:13.143Z,96461.77
2019-03-06T19:00:43.355Z,96457.95
2019-03-06T19:03:12.043Z,96460.80
2019-03-06T19:05:40.687Z,96453.04
2019-03-06T19:08:09.330Z,96445.17
2019-03-06T19:10:37.905Z,96434.97
2019-03-06T19:13:06.440Z,96438.73
2019-03-06T19:15:35.293Z,96435.16
2019-03-06T19:20:58.426Z,96426.53
2019-03-06T19:23:26.817Z,96426.09
2019-03-06T19:25:55.280Z,96424.44
2019-03-06T19:28:23.940Z,96432.18
2019-03-06T19:30:52.641Z,96426.77
2019-03-06T19:33:21.036Z,96433.53
2019-03-06T19:35:51.153Z,96423.55
2019-03-06T19:38:19.777Z,96421.56
2019-03-06T19:40:48.495Z,96419.05
2019-03-06T19:43:16.959Z,96421.17
2019-03-06T19:45:45.668Z,96411.02
2019-03-06T19:48:14.348Z,96411.50
2019-03-06T19:50:42.983Z,96398.08
2019-03-06T19:53:11.363Z,96390.11
2019-03-06T19:55:40.000Z,96383.61
2019-03-06T19:58:48.320Z,96393.70
2019-03-06T20:01:17.118Z,96384.70
2019-03-06T20:04:43.554Z,96388.20
2019-03-06T20:07:12.244Z,96386.22
2019-03-06T20:10:00.356Z,96384.95
2019-03-06T20:12:28.799Z,96381.70
2019-03-06T20:14:58.909Z,96381.08
2019-03-06T20:17:27.335Z,96379.73
2019-03-06T20:19:55.729Z,96370.53
2019-03-06T20:22:24.191Z,96364.52
2019-03-06T20:24:52.671Z,96357.13
2019-03-06T20:27:21.056Z,96363.45
2019-03-06T20:29:49.445Z,96363.77
2019-03-06T20:32:18.238Z,96363.89
2019-03-06T20:34:46.635Z,96361.88
2019-03-06T20:37:15.031Z,96354.89
2019-03-06T20:39:43.508Z,96347.27
2019-03-06T20:42:11.904Z,96358.11
2019-03-06T20:44:40.296Z,96353.79
2019-03-06T20:47:09.234Z,96361.12
2019-03-06T20:49:37.621Z,96353.48
2019-03-06T20:52:06.089Z,96358.25
2019-03-06T20:54:34.506Z,96339.84
2019-03-06T20:57:03.264Z,96336.41
2019-03-06T20:59:31.660Z,96338.02
2019-03-06T21:02:00.071Z,96334.39
2019-03-06T21:04:28.467Z,96339.48
2019-03-06T21:06:57.181Z,96344.22
2019-03-06T21:09:27.365Z,96344.80
2019-03-06T21:11:55.759Z,96341.80
2019-03-06T21:14:24.465Z,96342.27
2019-03-06T21:16:53.165Z,96348.77
2019-03-06T21:19:21.553Z,96355.02
2019-03-06T21:21:49.948Z,96346.21
2019-03-06T21:24:18.703Z,96353.38
2019-03-06T21:26:47.096Z,96348.06
2019-03-06T21:29:15.488Z,96351.03
2019-03-06T21:31:44.152Z,96351.31
2019-03-06T21:34:12.597Z,96348.77
2019-03-06T21:36:41.230Z,96353.94
2019-03-06T21:39:28.985Z,96341.12
2019-03-06T21:41:57.376Z,96317.92
2019-03-06T21:44:25.765Z,96328.96
2019-03-06T21:46:54.182Z,96332.12
2019-03-06T21:49:22.570Z,96333.70
2019-03-06T21:51:51.023Z,96322.13
2019-03-06T21:54:21.150Z,96322.20
2019-03-06T21:56:49.852Z,96308.67
2019-03-06T21:59:18.253Z,96311.13
2019-03-06T22:01:47.023Z,96301.28
2019-03-06T22:04:15.419Z,96285.48
2019-03-06T22:06:43.817Z,96292.20
2019-03-06T22:09:52.822Z,96306.73
2019-03-06T22:12:21.497Z,96298.98
2019-03-06T22:14:49.908Z,96284.75
2019-03-06T22:17:18.413Z,96282.57
2019-03-06T22:19:47.040Z,96281.36
2019-03-06T22:22:15.849Z,96279.98
2019-03-06T22:24:44.513Z,96292.49
2019-03-06T22:27:13.198Z,96287.14
2019-03-06T22:29:41.882Z,96290.66
2019-03-06T22:32:11.994Z,96294.94
2019-03-06T22:34:40.641Z,96295.17
2019-03-06T22:37:09.374Z,96282.48
2019-03-06T22:39:38.065Z,96291.73
2019-03-06T22:42:06.752Z,96291.66
2019-03-06T22:44:35.432Z,96301.57
2019-03-06T22:47:23.473Z,96301.64
2019-03-06T22:49:52.171Z,96311.22
2019-03-06T22:52:20.849Z,96310.58
2019-03-06T22:54:49.245Z,96314.04
2019-03-06T22:57:17.907Z,96312.45
2019-03-06T22:59:46.306Z,96305.88
2019-03-06T23:02:14.896Z,96301.14
2019-03-06T23:04:43.573Z,96293.64
2019-03-06T23:07:12.031Z,96281.60
2019-03-06T23:09:40.723Z,96278.65
2019-03-06T23:12:09.196Z,96282.25
2019-03-06T23:14:37.893Z,96270.66
2019-03-06T23:17:06.399Z,96270.51
2019-03-06T23:19:35.055Z,96265.55
2019-03-06T23:22:03.755Z,96258.32
2019-03-06T23:24:32.148Z,96257.64
2019-03-06T23:27:00.814Z,96253.75
2019-03-06T23:29:29.494Z,96252.41
2019-03-06T23:31:58.183Z,96243.86
2019-03-06T23:34:26.565Z,96245.38
2019-03-06T23:36:54.963Z,96242.86
2019-03-06T23:39:23.669Z,96240.16
2019-03-06T23:41:52.035Z,96239.22
2019-03-06T23:44:20.429Z,96242.03
2019-03-06T23:46:48.809Z,96242.81
2019-03-06T23:49:17.548Z,96246.91
2019-03-06T23:54:35.039Z,96239.45
2019-03-06T23:57:03.424Z,96243.22
2019-03-06T23:59:32.165Z,96238.69
